»·PEaware :: N210AR KSNA-KBUR

N210AR :: KSNA-KBUR

FLIGHT INFORMATION

Flight Status: Arrived
Operator: Privately registered:
United States
More flights under this callsign
Pilot: Max S. (16657)
Aircraft: CESSNA 172 SKYHAWK
(C172)
More flights by this aircraft type
Origin: KSNA John Wayne-Orange Co
United States
Destination: KBUR Bob Hope-Burbank
United States
More flights between these airports :: More routes between these airports
Route: +SLI V23 POPPR SMO125 SMO SMO311 SILEX
File this flight plan on PilotEdge
Remarks: TEC route CSTP1
Altitude:
(Current/Filed)
4,000ft
Speed:
(Current/Filed)
100kts
Departed: 30-Nov-20 09:00 AM
Arrived: 30-Nov-20 09:38 AM
Distance/Time
Traveled:
40nm/0:38
Distance/Time
To Go:
Arrived

Flight Plot

Page will automatically refresh every two minutes.


Map Options




Map Legend


Flown Route
Filed Route
Departure Airport
Arrival Airport
Navaid (VOR, NDB)
Fix

Horizontal Profiles

Position Reports

Time Latitude Longitude Heading Altitude Ground
Speed
30-Nov-20 08:42 33.670560 -117.867903 210 60ft 0kts
30-Nov-20 08:43 33.670560 -117.867903 210 60ft 0kts
30-Nov-20 08:43 33.670560 -117.867903 210 60ft 0kts
30-Nov-20 08:45 33.670560 -117.867903 210 60ft 0kts
30-Nov-20 08:46 33.670560 -117.867903 210 60ft 0kts
30-Nov-20 08:46 33.670560 -117.867903 210 60ft 0kts
30-Nov-20 08:48 33.670560 -117.867903 210 60ft 0kts
30-Nov-20 08:48 33.670560 -117.867903 210 60ft 0kts
30-Nov-20 08:49 33.670560 -117.867903 210 60ft 0kts
30-Nov-20 08:50 33.670560 -117.867903 210 60ft 0kts
30-Nov-20 08:51 33.670560 -117.867903 210 60ft 0kts
30-Nov-20 08:52 33.670536 -117.867928 227 60ft 1kts
30-Nov-20 08:53 33.671124 -117.868792 359 60ft 6kts
30-Nov-20 08:54 33.673456 -117.866981 351 60ft 12kts
30-Nov-20 08:55 33.677028 -117.865241 26 60ft 15kts
30-Nov-20 08:56 33.679959 -117.863611 300 60ft 0kts
30-Nov-20 08:57 33.679959 -117.863611 300 60ft 0kts
30-Nov-20 08:58 33.679959 -117.863611 300 60ft 0kts
30-Nov-20 08:59 33.673186 -117.868612 208 240ft 69kts
30-Nov-20 09:00 33.658693 -117.886008 230 956ft 81kts
30-Nov-20 09:01 33.643581 -117.908752 231 1666ft 91kts
30-Nov-20 09:02 33.627565 -117.933037 231 2368ft 93kts
30-Nov-20 09:03 33.633421 -117.957809 320 3055ft 92kts
30-Nov-20 09:04 33.653024 -117.976597 321 3750ft 88kts
30-Nov-20 09:05 33.670906 -117.994555 315 4439ft 78kts
30-Nov-20 09:06 33.689357 -118.018996 309 4126ft 144kts
30-Nov-20 09:07 33.713605 -118.056798 306 3775ft 136kts
30-Nov-20 09:08 33.733468 -118.089459 305 3786ft 114kts
30-Nov-20 09:09 33.752497 -118.121969 301 3786ft 120kts
30-Nov-20 09:10 33.769909 -118.156751 302 3785ft 121kts
30-Nov-20 09:11 33.789071 -118.190098 305 3785ft 121kts
30-Nov-20 09:12 33.808778 -118.223234 305 3785ft 121kts
30-Nov-20 09:13 33.828507 -118.256390 305 3785ft 121kts
30-Nov-20 09:14 33.848118 -118.289587 309 3785ft 121kts
30-Nov-20 09:15 33.872781 -118.317489 319 3785ft 121kts
30-Nov-20 09:16 33.898579 -118.343842 319 3785ft 121kts
30-Nov-20 09:17 33.924514 -118.370013 320 3785ft 121kts
30-Nov-20 09:18 33.950539 -118.396128 320 3785ft 121kts
30-Nov-20 09:19 33.976575 -118.422273 320 3785ft 121kts
30-Nov-20 09:20 34.002584 -118.448418 320 3785ft 121kts
30-Nov-20 09:21 34.029326 -118.473408 325 3785ft 121kts
30-Nov-20 09:22 34.057345 -118.496244 326 3785ft 121kts
30-Nov-20 09:23 34.083494 -118.521503 305 3785ft 121kts
30-Nov-20 09:24 34.101413 -118.556176 301 3785ft 121kts
30-Nov-20 09:25 34.119198 -118.590935 301 3785ft 121kts
30-Nov-20 09:26 34.137074 -118.625661 302 3785ft 121kts
30-Nov-20 09:27 34.161857 -118.635502 56 3783ft 120kts
30-Nov-20 09:28 34.177215 -118.599941 63 2959ft 112kts
30-Nov-20 09:29 34.189027 -118.571783 63 2787ft 85kts
30-Nov-20 09:30 34.199822 -118.545720 70 2786ft 88kts
30-Nov-20 09:31 34.199221 -118.515591 91 2787ft 90kts
30-Nov-20 09:32 34.199367 -118.484690 87 2715ft 97kts
30-Nov-20 09:33 34.199556 -118.448937 97 2156ft 114kts
30-Nov-20 09:34 34.198336 -118.413717 89 1482ft 98kts
30-Nov-20 09:35 34.198219 -118.385592 93 1151ft 60kts
30-Nov-20 09:36 34.197828 -118.365583 92 726ft 41kts
30-Nov-20 09:37 34.198631 -118.360279 358 723ft 5kts
30-Nov-20 09:38 34.199935 -118.359745 255 726ft 4kts
30-Nov-20 09:39 34.199956 -118.362445 335 731ft 9kts
30-Nov-20 09:40 34.199941 -118.363549 178 732ft 0kts

Navigation Log

Ident Type
Flight plan parsing failed, navigation log unavailable